sensor_id;sensor_type;location;lat;lon;timestamp;pressure;altitude;pressure_sealevel;temperature;humidity
10720;BME280;5411;58.386;15.560;2023-07-08T00:00:28;100972.22;;;14.79;95.91
10720;BME280;5411;58.386;15.560;2023-07-08T00:02:59;100974.31;;;14.77;96.16
10720;BME280;5411;58.386;15.560;2023-07-08T00:05:27;100971.84;;;14.75;96.23
10720;BME280;5411;58.386;15.560;2023-07-08T00:07:57;100982.63;;;14.75;96.25
10720;BME280;5411;58.386;15.560;2023-07-08T00:10:26;100981.78;;;14.75;96.50
10720;BME280;5411;58.386;15.560;2023-07-08T00:12:57;100969.38;;;14.74;96.56
10720;BME280;5411;58.386;15.560;2023-07-08T00:15:27;100987.38;;;14.73;96.68
10720;BME280;5411;58.386;15.560;2023-07-08T00:17:56;100985.75;;;14.72;96.41
10720;BME280;5411;58.386;15.560;2023-07-08T00:20:31;100989.25;;;14.73;96.61
10720;BME280;5411;58.386;15.560;2023-07-08T00:23:02;100990.28;;;14.72;96.87
10720;BME280;5411;58.386;15.560;2023-07-08T00:25:31;100989.69;;;14.70;96.87
10720;BME280;5411;58.386;15.560;2023-07-08T00:28:00;100987.81;;;14.70;96.84
10720;BME280;5411;58.386;15.560;2023-07-08T00:30:30;100986.16;;;14.69;96.84
10720;BME280;5411;58.386;15.560;2023-07-08T00:32:59;100987.63;;;14.65;97.31
10720;BME280;5411;58.386;15.560;2023-07-08T00:35:31;100988.69;;;14.64;97.41
10720;BME280;5411;58.386;15.560;2023-07-08T00:38:11;100988.28;;;14.60;97.60
10720;BME280;5411;58.386;15.560;2023-07-08T00:40:50;100985.19;;;14.57;98.73
10720;BME280;5411;58.386;15.560;2023-07-08T00:43:23;100985.59;;;14.54;98.52
10720;BME280;5411;58.386;15.560;2023-07-08T00:46:00;100987.09;;;14.50;98.88
10720;BME280;5411;58.386;15.560;2023-07-08T00:48:34;100987.50;;;14.47;99.55
10720;BME280;5411;58.386;15.560;2023-07-08T00:51:02;100989.78;;;14.43;99.51
10720;BME280;5411;58.386;15.560;2023-07-08T00:53:34;100987.50;;;14.40;100.00
10720;BME280;5411;58.386;15.560;2023-07-08T00:56:06;100980.69;;;14.38;100.00
10720;BME280;5411;58.386;15.560;2023-07-08T00:58:40;100983.78;;;14.35;100.00
10720;BME280;5411;58.386;15.560;2023-07-08T01:01:10;100984.00;;;14.33;100.00
10720;BME280;5411;58.386;15.560;2023-07-08T01:03:45;100985.03;;;14.32;100.00
10720;BME280;5411;58.386;15.560;2023-07-08T01:06:22;100985.44;;;14.29;100.00
10720;BME280;5411;58.386;15.560;2023-07-08T01:09:07;100980.28;;;14.27;100.00
10720;BME280;5411;58.386;15.560;2023-07-08T01:11:39;100985.66;;;14.27;100.00
10720;BME280;5411;58.386;15.560;2023-07-08T01:14:11;100994.97;;;14.25;100.00
10720;BME280;5411;58.386;15.560;2023-07-08T01:16:41;100981.13;;;14.21;100.00
10720;BME280;5411;58.386;15.560;2023-07-08T01:19:16;100991.06;;;14.21;100.00
10720;BME280;5411;58.386;15.560;2023-07-08T01:21:58;100988.78;;;14.18;100.00
10720;BME280;5411;58.386;15.560;2023-07-08T01:24:27;101000.59;;;14.17;100.00
10720;BME280;5411;58.386;15.560;2023-07-08T01:26:58;100991.69;;;14.16;100.00
10720;BME280;5411;58.386;15.560;2023-07-08T01:29:28;100994.59;;;14.15;100.00
10720;BME280;5411;58.386;15.560;2023-07-08T01:31:57;100988.19;;;14.16;100.00
10720;BME280;5411;58.386;15.560;2023-07-08T01:34:30;100987.56;;;14.14;100.00
10720;BME280;5411;58.386;15.560;2023-07-08T01:37:01;100982.38;;;14.12;100.00
10720;BME280;5411;58.386;15.560;2023-07-08T01:39:32;100982.63;;;14.11;100.00
10720;BME280;5411;58.386;15.560;2023-07-08T01:42:01;100978.47;;;14.08;100.00
10720;BME280;5411;58.386;15.560;2023-07-08T01:44:31;100986.97;;;14.05;100.00
10720;BME280;5411;58.386;15.560;2023-07-08T01:47:08;100993.19;;;14.06;100.00
10720;BME280;5411;58.386;15.560;2023-07-08T01:49:40;100988.22;;;14.03;100.00
10720;BME280;5411;58.386;15.560;2023-07-08T01:52:12;100982.19;;;14.01;100.00
10720;BME280;5411;58.386;15.560;2023-07-08T01:54:40;100982.41;;;13.99;100.00
10720;BME280;5411;58.386;15.560;2023-07-08T01:57:09;100985.34;;;13.98;100.00
10720;BME280;5411;58.386;15.560;2023-07-08T01:59:37;100982.84;;;13.96;100.00
10720;BME280;5411;58.386;15.560;2023-07-08T02:02:05;100982.63;;;13.91;100.00
10720;BME280;5411;58.386;15.560;2023-07-08T02:04:37;100995.06;;;13.92;100.00
10720;BME280;5411;58.386;15.560;2023-07-08T02:07:07;100993.19;;;13.93;100.00
10720;BME280;5411;58.386;15.560;2023-07-08T02:09:37;101002.09;;;13.93;100.00
10720;BME280;5411;58.386;15.560;2023-07-08T02:12:08;101004.59;;;13.95;100.00
10720;BME280;5411;58.386;15.560;2023-07-08T02:14:37;101001.69;;;13.96;100.00
10720;BME280;5411;58.386;15.560;2023-07-08T02:17:05;101000.66;;;13.97;100.00
10720;BME280;5411;58.386;15.560;2023-07-08T02:19:36;101003.09;;;13.99;100.00
10720;BME280;5411;58.386;15.560;2023-07-08T02:22:05;101002.28;;;13.98;100.00
10720;BME280;5411;58.386;15.560;2023-07-08T02:24:34;100999.00;;;13.96;100.00
10720;BME280;5411;58.386;15.560;2023-07-08T02:27:04;101003.09;;;13.99;100.00
10720;BME280;5411;58.386;15.560;2023-07-08T02:29:32;101009.31;;;13.99;100.00
10720;BME280;5411;58.386;15.560;2023-07-08T02:32:01;101010.34;;;13.98;100.00
10720;BME280;5411;58.386;15.560;2023-07-08T02:34:29;101002.50;;;13.97;100.00
10720;BME280;5411;58.386;15.560;2023-07-08T02:36:59;101008.28;;;14.00;100.00
10720;BME280;5411;58.386;15.560;2023-07-08T02:39:30;101010.75;;;14.02;100.00
10720;BME280;5411;58.386;15.560;2023-07-08T02:41:58;101014.69;;;14.06;100.00
10720;BME280;5411;58.386;15.560;2023-07-08T02:44:29;101015.13;;;14.09;100.00
10720;BME280;5411;58.386;15.560;2023-07-08T02:46:58;101014.91;;;14.11;100.00
10720;BME280;5411;58.386;15.560;2023-07-08T02:49:26;101015.91;;;14.16;100.00
10720;BME280;5411;58.386;15.560;2023-07-08T02:51:55;101018.00;;;14.21;100.00
10720;BME280;5411;58.386;15.560;2023-07-08T02:54:23;101011.13;;;14.25;100.00
10720;BME280;5411;58.386;15.560;2023-07-08T02:56:52;101019.00;;;14.33;100.00
10720;BME280;5411;58.386;15.560;2023-07-08T02:59:20;101014.81;;;14.57;100.00
10720;BME280;5411;58.386;15.560;2023-07-08T03:01:50;101014.91;;;14.82;100.00
10720;BME280;5411;58.386;15.560;2023-07-08T03:04:21;101015.16;;;15.12;100.00
10720;BME280;5411;58.386;15.560;2023-07-08T03:06:53;101016.03;;;15.37;100.00
10720;BME280;5411;58.386;15.560;2023-07-08T03:09:21;101006.13;;;15.62;100.00
10720;BME280;5411;58.386;15.560;2023-07-08T03:11:50;101010.69;;;15.87;98.34
10720;BME280;5411;58.386;15.560;2023-07-08T03:14:25;101007.72;;;16.13;96.89
10720;BME280;5411;58.386;15.560;2023-07-08T03:16:55;101010.63;;;16.36;95.33
10720;BME280;5411;58.386;15.560;2023-07-08T03:19:24;101016.59;;;16.57;93.97
10720;BME280;5411;58.386;15.560;2023-07-08T03:21:52;101009.19;;;16.70;92.65
10720;BME280;5411;58.386;15.560;2023-07-08T03:24:20;101008.19;;;16.83;91.71
10720;BME280;5411;58.386;15.560;2023-07-08T03:26:49;100999.09;;;16.96;90.84
10720;BME280;5411;58.386;15.560;2023-07-08T03:29:21;101001.97;;;17.13;89.75
10720;BME280;5411;58.386;15.560;2023-07-08T03:31:51;101006.00;;;17.22;88.87
10720;BME280;5411;58.386;15.560;2023-07-08T03:34:20;101006.03;;;17.33;88.38
10720;BME280;5411;58.386;15.560;2023-07-08T03:36:50;101009.97;;;17.49;87.69
10720;BME280;5411;58.386;15.560;2023-07-08T03:39:21;101009.16;;;17.60;87.46
10720;BME280;5411;58.386;15.560;2023-07-08T03:41:51;101004.38;;;17.74;86.35
10720;BME280;5411;58.386;15.560;2023-07-08T03:44:30;101009.47;;;17.82;85.48
10720;BME280;5411;58.386;15.560;2023-07-08T03:47:02;101012.16;;;17.94;85.63
10720;BME280;5411;58.386;15.560;2023-07-08T03:49:31;101016.03;;;17.98;84.86
10720;BME280;5411;58.386;15.560;2023-07-08T03:52:00;101016.75;;;18.05;85.17
10720;BME280;5411;58.386;15.560;2023-07-08T03:54:28;101020.66;;;18.09;84.40
10720;BME280;5411;58.386;15.560;2023-07-08T03:56:57;101012.75;;;18.07;85.01
10720;BME280;5411;58.386;15.560;2023-07-08T03:59:25;101016.53;;;18.06;85.03
10720;BME280;5411;58.386;15.560;2023-07-08T04:02:03;101016.28;;;18.08;85.27
10720;BME280;5411;58.386;15.560;2023-07-08T04:04:39;101020.75;;;18.14;85.02
10720;BME280;5411;58.386;15.560;2023-07-08T04:07:09;101029.34;;;18.11;85.53
10720;BME280;5411;58.386;15.560;2023-07-08T04:09:39;101025.09;;;18.03;85.99
10720;BME280;5411;58.386;15.560;2023-07-08T04:12:12;101026.63;;;17.99;86.28
10720;BME280;5411;58.386;15.560;2023-07-08T04:14:40;101028.41;;;17.94;87.09
10720;BME280;5411;58.386;15.560;2023-07-08T04:17:10;101039.25;;;17.82;87.86
10720;BME280;5411;58.386;15.560;2023-07-08T04:19:41;101025.19;;;17.73;88.27
10720;BME280;5411;58.386;15.560;2023-07-08T04:22:11;101039.47;;;17.80;88.75
10720;BME280;5411;58.386;15.560;2023-07-08T04:24:39;101033.34;;;17.85;89.05
10720;BME280;5411;58.386;15.560;2023-07-08T04:27:08;101032.03;;;17.88;89.06
10720;BME280;5411;58.386;15.560;2023-07-08T04:29:42;101041.22;;;17.87;89.78
10720;BME280;5411;58.386;15.560;2023-07-08T04:32:10;101040.16;;;17.76;90.21
10720;BME280;5411;58.386;15.560;2023-07-08T04:34:40;101035.31;;;17.66;91.49
10720;BME280;5411;58.386;15.560;2023-07-08T04:37:11;101036.38;;;17.65;91.69
10720;BME280;5411;58.386;15.560;2023-07-08T04:39:40;101037.56;;;17.69;92.11
10720;BME280;5411;58.386;15.560;2023-07-08T04:42:08;101040.75;;;17.66;92.39
10720;BME280;5411;58.386;15.560;2023-07-08T04:44:39;101038.84;;;17.67;92.40
10720;BME280;5411;58.386;15.560;2023-07-08T04:47:08;101040.28;;;17.69;92.46
10720;BME280;5411;58.386;15.560;2023-07-08T04:49:42;101041.78;;;17.65;92.99
10720;BME280;5411;58.386;15.560;2023-07-08T04:52:12;101048.16;;;17.71;93.38
10720;BME280;5411;58.386;15.560;2023-07-08T04:54:41;101048.19;;;17.83;92.87
10720;BME280;5411;58.386;15.560;2023-07-08T04:57:09;101035.13;;;17.91;92.98
10720;BME280;5411;58.386;15.560;2023-07-08T04:59:39;101046.63;;;17.87;92.61
10720;BME280;5411;58.386;15.560;2023-07-08T05:02:08;101044.97;;;17.86;93.01
10720;BME280;5411;58.386;15.560;2023-07-08T05:04:46;101046.16;;;17.78;92.76
10720;BME280;5411;58.386;15.560;2023-07-08T05:07:14;101051.72;;;17.83;93.33
10720;BME280;5411;58.386;15.560;2023-07-08T05:09:42;101044.16;;;17.85;92.83
10720;BME280;5411;58.386;15.560;2023-07-08T05:12:10;101050.31;;;17.92;93.26
10720;BME280;5411;58.386;15.560;2023-07-08T05:14:40;101043.94;;;17.98;92.86
10720;BME280;5411;58.386;15.560;2023-07-08T05:17:12;101046.91;;;18.08;92.75
10720;BME280;5411;58.386;15.560;2023-07-08T05:19:42;101045.72;;;18.16;92.76
10720;BME280;5411;58.386;15.560;2023-07-08T05:22:13;101051.50;;;18.20;91.87
10720;BME280;5411;58.386;15.560;2023-07-08T05:24:45;101055.25;;;18.19;91.82
10720;BME280;5411;58.386;15.560;2023-07-08T05:27:14;101049.72;;;18.25;92.30
10720;BME280;5411;58.386;15.560;2023-07-08T05:29:42;101050.06;;;18.40;92.74
10720;BME280;5411;58.386;15.560;2023-07-08T05:32:10;101054.31;;;18.48;91.97
10720;BME280;5411;58.386;15.560;2023-07-08T05:34:38;101057.84;;;18.60;91.09
10720;BME280;5411;58.386;15.560;2023-07-08T05:37:07;101050.28;;;18.74;91.18
10720;BME280;5411;58.386;15.560;2023-07-08T05:39:37;101045.53;;;18.81;89.76
10720;BME280;5411;58.386;15.560;2023-07-08T05:42:06;101050.94;;;18.81;90.05
10720;BME280;5411;58.386;15.560;2023-07-08T05:44:34;101046.81;;;18.90;90.35
10720;BME280;5411;58.386;15.560;2023-07-08T05:47:04;101042.41;;;19.01;89.47
10720;BME280;5411;58.386;15.560;2023-07-08T05:49:33;101045.22;;;19.06;88.70
10720;BME280;5411;58.386;15.560;2023-07-08T05:52:04;101045.97;;;19.18;88.67
10720;BME280;5411;58.386;15.560;2023-07-08T05:54:40;101054.00;;;19.25;88.71
10720;BME280;5411;58.386;15.560;2023-07-08T05:57:10;101056.81;;;19.30;88.16
10720;BME280;5411;58.386;15.560;2023-07-08T05:59:38;101059.00;;;19.33;87.61
10720;BME280;5411;58.386;15.560;2023-07-08T06:02:09;101060.41;;;19.35;87.81
10720;BME280;5411;58.386;15.560;2023-07-08T06:04:38;101067.75;;;19.35;87.84
10720;BME280;5411;58.386;15.560;2023-07-08T06:07:10;101065.13;;;19.40;88.51
10720;BME280;5411;58.386;15.560;2023-07-08T06:09:40;101063.59;;;19.44;87.38
10720;BME280;5411;58.386;15.560;2023-07-08T06:12:11;101053.44;;;19.39;87.85
10720;BME280;5411;58.386;15.560;2023-07-08T06:14:39;101065.78;;;19.47;88.04
10720;BME280;5411;58.386;15.560;2023-07-08T06:17:08;101051.75;;;19.50;87.76
10720;BME280;5411;58.386;15.560;2023-07-08T06:19:37;101053.75;;;19.54;88.46
10720;BME280;5411;58.386;15.560;2023-07-08T06:22:05;101059.84;;;19.62;87.88
10720;BME280;5411;58.386;15.560;2023-07-08T06:24:55;101062.34;;;19.80;87.95
10720;BME280;5411;58.386;15.560;2023-07-08T06:27:24;101060.78;;;19.84;87.39
10720;BME280;5411;58.386;15.560;2023-07-08T06:29:55;101070.22;;;19.98;88.26
10720;BME280;5411;58.386;15.560;2023-07-08T06:32:23;101066.91;;;20.13;86.27
10720;BME280;5411;58.386;15.560;2023-07-08T06:34:52;101063.47;;;20.17;85.99
10720;BME280;5411;58.386;15.560;2023-07-08T06:37:23;101058.13;;;20.22;85.82
10720;BME280;5411;58.386;15.560;2023-07-08T06:39:52;101061.97;;;20.26;85.37
10720;BME280;5411;58.386;15.560;2023-07-08T06:42:21;101056.59;;;20.32;84.10
10720;BME280;5411;58.386;15.560;2023-07-08T06:44:50;101059.44;;;20.37;84.18
10720;BME280;5411;58.386;15.560;2023-07-08T06:47:20;101060.16;;;20.49;84.70
10720;BME280;5411;58.386;15.560;2023-07-08T06:49:49;101060.88;;;20.61;84.18
10720;BME280;5411;58.386;15.560;2023-07-08T06:52:17;101062.38;;;20.74;84.24
10720;BME280;5411;58.386;15.560;2023-07-08T06:54:45;101065.22;;;20.84;82.42
10720;BME280;5411;58.386;15.560;2023-07-08T06:57:14;101067.00;;;20.95;81.65
10720;BME280;5411;58.386;15.560;2023-07-08T07:00:00;101058.94;;;21.05;81.11
10720;BME280;5411;58.386;15.560;2023-07-08T07:02:29;101067.16;;;21.10;80.50
10720;BME280;5411;58.386;15.560;2023-07-08T07:04:58;101069.72;;;21.17;80.59
10720;BME280;5411;58.386;15.560;2023-07-08T07:07:26;101067.25;;;21.15;80.08
10720;BME280;5411;58.386;15.560;2023-07-08T07:09:54;101066.81;;;21.23;79.73
10720;BME280;5411;58.386;15.560;2023-07-08T07:12:25;101064.56;;;21.42;80.34
10720;BME280;5411;58.386;15.560;2023-07-08T07:15:00;101065.47;;;21.53;78.67
10720;BME280;5411;58.386;15.560;2023-07-08T07:17:32;101065.00;;;21.61;78.91
10720;BME280;5411;58.386;15.560;2023-07-08T07:20:02;101065.06;;;21.71;76.88
10720;BME280;5411;58.386;15.560;2023-07-08T07:22:32;101068.69;;;21.77;77.63
10720;BME280;5411;58.386;15.560;2023-07-08T07:25:01;101072.03;;;21.89;76.83
10720;BME280;5411;58.386;15.560;2023-07-08T07:27:32;101072.34;;;21.92;76.25
10720;BME280;5411;58.386;15.560;2023-07-08T07:30:02;101076.25;;;22.01;76.31
10720;BME280;5411;58.386;15.560;2023-07-08T07:32:30;101076.63;;;22.10;76.11
10720;BME280;5411;58.386;15.560;2023-07-08T07:35:02;101073.69;;;22.22;76.26
10720;BME280;5411;58.386;15.560;2023-07-08T07:37:30;101070.72;;;22.28;73.73
10720;BME280;5411;58.386;15.560;2023-07-08T07:39:58;101077.53;;;22.26;74.38
10720;BME280;5411;58.386;15.560;2023-07-08T07:42:27;101090.88;;;22.22;73.94
10720;BME280;5411;58.386;15.560;2023-07-08T07:44:56;101078.59;;;22.25;72.04
10720;BME280;5411;58.386;15.560;2023-07-08T07:47:26;101080.81;;;22.23;74.04
10720;BME280;5411;58.386;15.560;2023-07-08T07:50:00;101085.97;;;22.24;74.04
10720;BME280;5411;58.386;15.560;2023-07-08T07:52:36;101072.34;;;22.24;74.51
10720;BME280;5411;58.386;15.560;2023-07-08T07:55:05;101075.16;;;22.34;73.52
10720;BME280;5411;58.386;15.560;2023-07-08T07:57:37;101074.59;;;22.37;72.80
10720;BME280;5411;58.386;15.560;2023-07-08T08:00:06;101068.16;;;22.49;73.01
10720;BME280;5411;58.386;15.560;2023-07-08T08:02:37;101069.00;;;22.59;71.92
10720;BME280;5411;58.386;15.560;2023-07-08T08:05:06;101063.28;;;22.66;71.17
10720;BME280;5411;58.386;15.560;2023-07-08T08:07:35;101063.06;;;22.72;71.20
10720;BME280;5411;58.386;15.560;2023-07-08T08:10:05;101065.00;;;22.77;71.14
10720;BME280;5411;58.386;15.560;2023-07-08T08:12:36;101063.41;;;22.76;70.87
10720;BME280;5411;58.386;15.560;2023-07-08T08:15:21;101065.28;;;22.75;69.77
10720;BME280;5411;58.386;15.560;2023-07-08T08:17:51;101066.69;;;22.83;69.76
10720;BME280;5411;58.386;15.560;2023-07-08T08:20:21;101068.59;;;22.83;70.52
10720;BME280;5411;58.386;15.560;2023-07-08T08:22:51;101064.25;;;22.92;70.42
10720;BME280;5411;58.386;15.560;2023-07-08T08:25:21;101062.91;;;22.94;69.49
10720;BME280;5411;58.386;15.560;2023-07-08T08:27:49;101067.88;;;23.02;70.11
10720;BME280;5411;58.386;15.560;2023-07-08T08:30:19;101061.88;;;23.10;70.57
10720;BME280;5411;58.386;15.560;2023-07-08T08:32:47;101060.28;;;23.25;69.83
10720;BME280;5411;58.386;15.560;2023-07-08T08:35:20;101056.19;;;23.32;68.36
10720;BME280;5411;58.386;15.560;2023-07-08T08:37:48;101054.28;;;23.38;67.79
10720;BME280;5411;58.386;15.560;2023-07-08T08:40:20;101055.13;;;23.43;66.80
10720;BME280;5411;58.386;15.560;2023-07-08T08:43:31;101058.13;;;23.47;67.54
10720;BME280;5411;58.386;15.560;2023-07-08T08:46:05;101061.72;;;23.53;66.89
10720;BME280;5411;58.386;15.560;2023-07-08T08:48:42;101055.41;;;23.57;65.48
10720;BME280;5411;58.386;15.560;2023-07-08T08:51:20;101067.19;;;23.63;63.31
10720;BME280;5411;58.386;15.560;2023-07-08T08:53:53;101072.41;;;23.69;64.63
10720;BME280;5411;58.386;15.560;2023-07-08T08:56:26;101068.28;;;23.77;63.63
10720;BME280;5411;58.386;15.560;2023-07-08T08:59:07;101070.75;;;23.78;62.83
10720;BME280;5411;58.386;15.560;2023-07-08T09:01:41;101074.59;;;23.83;60.53
10720;BME280;5411;58.386;15.560;2023-07-08T09:04:13;101077.84;;;23.85;61.46
10720;BME280;5411;58.386;15.560;2023-07-08T09:06:46;101072.13;;;23.86;60.00
10720;BME280;5411;58.386;15.560;2023-07-08T09:09:29;101061.75;;;23.93;58.51
10720;BME280;5411;58.386;15.560;2023-07-08T09:12:04;101066.66;;;24.06;59.93
10720;BME280;5411;58.386;15.560;2023-07-08T09:14:35;101057.59;;;24.21;62.03
10720;BME280;5411;58.386;15.560;2023-07-08T09:17:17;101062.00;;;24.32;60.74
10720;BME280;5411;58.386;15.560;2023-07-08T09:19:52;101065.22;;;24.49;60.05
10720;BME280;5411;58.386;15.560;2023-07-08T09:22:32;101068.75;;;24.60;59.00
10720;BME280;5411;58.386;15.560;2023-07-08T09:25:07;101065.97;;;24.70;56.54
10720;BME280;5411;58.386;15.560;2023-07-08T09:27:41;101065.44;;;24.68;57.38
10720;BME280;5411;58.386;15.560;2023-07-08T09:30:14;101068.16;;;24.68;57.31
10720;BME280;5411;58.386;15.560;2023-07-08T09:32:45;101064.88;;;24.71;57.85
10720;BME280;5411;58.386;15.560;2023-07-08T09:35:18;101064.09;;;24.61;58.02
10720;BME280;5411;58.386;15.560;2023-07-08T09:37:51;101064.06;;;24.71;56.99
10720;BME280;5411;58.386;15.560;2023-07-08T09:40:23;101068.75;;;24.60;56.39
10720;BME280;5411;58.386;15.560;2023-07-08T09:43:00;101058.13;;;24.48;50.78
10720;BME280;5411;58.386;15.560;2023-07-08T09:45:41;101048.72;;;24.70;53.43
10720;BME280;5411;58.386;15.560;2023-07-08T09:48:16;101056.34;;;24.83;51.76
10720;BME280;5411;58.386;15.560;2023-07-08T09:50:51;101061.53;;;24.90;50.93
10720;BME280;5411;58.386;15.560;2023-07-08T09:53:22;101057.63;;;25.06;51.78
10720;BME280;5411;58.386;15.560;2023-07-08T09:55:51;101067.13;;;25.18;51.16
10720;BME280;5411;58.386;15.560;2023-07-08T09:58:24;101063.25;;;25.30;50.26
10720;BME280;5411;58.386;15.560;2023-07-08T10:00:57;101074.72;;;25.32;49.05
10720;BME280;5411;58.386;15.560;2023-07-08T10:03:28;101063.72;;;25.42;48.05
10720;BME280;5411;58.386;15.560;2023-07-08T10:06:03;101071.63;;;25.43;48.00
10720;BME280;5411;58.386;15.560;2023-07-08T10:08:37;101071.63;;;25.48;48.35
10720;BME280;5411;58.386;15.560;2023-07-08T10:11:22;101073.94;;;25.70;48.62
10720;BME280;5411;58.386;15.560;2023-07-08T10:13:59;101063.50;;;25.77;47.28
10720;BME280;5411;58.386;15.560;2023-07-08T10:16:41;101066.91;;;25.93;47.47
10720;BME280;5411;58.386;15.560;2023-07-08T10:19:13;101058.69;;;25.93;48.44
10720;BME280;5411;58.386;15.560;2023-07-08T10:21:50;101061.72;;;25.91;47.25
10720;BME280;5411;58.386;15.560;2023-07-08T10:24:30;101057.81;;;25.98;46.46
10720;BME280;5411;58.386;15.560;2023-07-08T10:27:13;101057.91;;;26.16;47.46
10720;BME280;5411;58.386;15.560;2023-07-08T10:29:53;101056.63;;;26.38;45.54
10720;BME280;5411;58.386;15.560;2023-07-08T10:32:30;101055.34;;;26.25;46.80
10720;BME280;5411;58.386;15.560;2023-07-08T10:35:11;101062.59;;;26.16;47.39
10720;BME280;5411;58.386;15.560;2023-07-08T10:37:52;101057.09;;;26.16;47.28
10720;BME280;5411;58.386;15.560;2023-07-08T10:40:44;101064.50;;;26.15;46.57
10720;BME280;5411;58.386;15.560;2023-07-08T10:43:34;101072.47;;;26.46;44.93
10720;BME280;5411;58.386;15.560;2023-07-08T10:46:16;101059.53;;;26.70;45.46
10720;BME280;5411;58.386;15.560;2023-07-08T10:49:05;101060.53;;;26.79;47.17
10720;BME280;5411;58.386;15.560;2023-07-08T10:51:40;101065.91;;;26.66;44.97
10720;BME280;5411;58.386;15.560;2023-07-08T10:54:33;101069.97;;;26.49;45.65
10720;BME280;5411;58.386;15.560;2023-07-08T10:57:14;101057.56;;;26.52;45.37
10720;BME280;5411;58.386;15.560;2023-07-08T10:59:55;101062.41;;;26.84;45.66
10720;BME280;5411;58.386;15.560;2023-07-08T11:03:08;101062.94;;;26.86;44.34
10720;BME280;5411;58.386;15.560;2023-07-08T11:05:46;101070.47;;;26.75;44.34
10720;BME280;5411;58.386;15.560;2023-07-08T11:08:20;101069.03;;;26.59;44.87
10720;BME280;5411;58.386;15.560;2023-07-08T11:10:52;101068.50;;;26.57;44.82
10720;BME280;5411;58.386;15.560;2023-07-08T11:13:47;101068.63;;;26.47;45.80
10720;BME280;5411;58.386;15.560;2023-07-08T11:16:23;101069.03;;;26.35;46.97
10720;BME280;5411;58.386;15.560;2023-07-08T11:19:10;101068.03;;;26.21;48.04
10720;BME280;5411;58.386;15.560;2023-07-08T11:21:44;101070.09;;;26.05;47.58
10720;BME280;5411;58.386;15.560;2023-07-08T11:24:21;101071.63;;;25.87;47.31
10720;BME280;5411;58.386;15.560;2023-07-08T11:26:55;101074.44;;;25.77;47.17
10720;BME280;5411;58.386;15.560;2023-07-08T11:29:39;101075.00;;;25.79;47.00
10720;BME280;5411;58.386;15.560;2023-07-08T11:32:15;101071.22;;;26.04;47.15
10720;BME280;5411;58.386;15.560;2023-07-08T11:34:46;101071.34;;;26.47;45.64
10720;BME280;5411;58.386;15.560;2023-07-08T11:37:20;101074.78;;;26.81;45.32
10720;BME280;5411;58.386;15.560;2023-07-08T11:40:13;101064.31;;;27.07;44.34
10720;BME280;5411;58.386;15.560;2023-07-08T11:42:49;101068.56;;;27.18;44.48
10720;BME280;5411;58.386;15.560;2023-07-08T11:45:30;101072.25;;;27.09;42.99
10720;BME280;5411;58.386;15.560;2023-07-08T11:48:09;101069.13;;;26.96;43.69
10720;BME280;5411;58.386;15.560;2023-07-08T11:50:42;101065.56;;;26.96;44.22
10720;BME280;5411;58.386;15.560;2023-07-08T11:53:32;101069.25;;;26.86;45.52
10720;BME280;5411;58.386;15.560;2023-07-08T11:56:04;101080.41;;;26.71;44.14
10720;BME280;5411;58.386;15.560;2023-07-08T11:58:52;101063.34;;;26.50;44.74
10720;BME280;5411;58.386;15.560;2023-07-08T12:01:27;101075.31;;;26.36;45.69
10720;BME280;5411;58.386;15.560;2023-07-08T12:04:27;101076.31;;;26.16;46.83
10720;BME280;5411;58.386;15.560;2023-07-08T12:07:06;101078.56;;;26.38;46.79
10720;BME280;5411;58.386;15.560;2023-07-08T12:09:39;101078.09;;;26.59;46.42
10720;BME280;5411;58.386;15.560;2023-07-08T12:12:18;101077.63;;;26.76;46.09
10720;BME280;5411;58.386;15.560;2023-07-08T12:14:50;101075.78;;;27.14;46.35
10720;BME280;5411;58.386;15.560;2023-07-08T12:17:20;101075.94;;;27.42;44.08
10720;BME280;5411;58.386;15.560;2023-07-08T12:19:49;101072.66;;;27.58;41.69
10720;BME280;5411;58.386;15.560;2023-07-08T12:22:20;101073.00;;;27.71;42.46
10720;BME280;5411;58.386;15.560;2023-07-08T12:24:48;101072.09;;;27.94;40.74
10720;BME280;5411;58.386;15.560;2023-07-08T12:27:17;101066.41;;;28.04;41.31
10720;BME280;5411;58.386;15.560;2023-07-08T12:29:45;101065.47;;;27.95;38.89
10720;BME280;5411;58.386;15.560;2023-07-08T12:32:14;101060.53;;;27.59;39.58
10720;BME280;5411;58.386;15.560;2023-07-08T12:34:50;101068.56;;;27.37;39.35
10720;BME280;5411;58.386;15.560;2023-07-08T12:37:22;101060.31;;;27.18;40.37
10720;BME280;5411;58.386;15.560;2023-07-08T12:39:55;101078.00;;;27.12;41.74
10720;BME280;5411;58.386;15.560;2023-07-08T12:42:26;101074.09;;;26.94;43.67
10720;BME280;5411;58.386;15.560;2023-07-08T12:44:56;101064.84;;;26.85;45.69
10720;BME280;5411;58.386;15.560;2023-07-08T12:47:35;101066.78;;;26.85;45.54
10720;BME280;5411;58.386;15.560;2023-07-08T12:50:11;101069.16;;;26.91;46.45
10720;BME280;5411;58.386;15.560;2023-07-08T12:52:46;101071.09;;;26.91;45.80
10720;BME280;5411;58.386;15.560;2023-07-08T12:55:16;101059.78;;;26.98;46.18
10720;BME280;5411;58.386;15.560;2023-07-08T12:57:49;101051.34;;;27.13;45.56
10720;BME280;5411;58.386;15.560;2023-07-08T13:00:25;101062.19;;;27.23;45.70
10720;BME280;5411;58.386;15.560;2023-07-08T13:02:57;101051.25;;;27.18;43.33
10720;BME280;5411;58.386;15.560;2023-07-08T13:05:45;101048.44;;;27.23;44.46
10720;BME280;5411;58.386;15.560;2023-07-08T13:08:20;101044.06;;;27.41;42.21
10720;BME280;5411;58.386;15.560;2023-07-08T13:10:51;101041.59;;;27.39;42.19
10720;BME280;5411;58.386;15.560;2023-07-08T13:13:24;101028.28;;;27.46;42.97
10720;BME280;5411;58.386;15.560;2023-07-08T13:15:54;101036.53;;;27.46;44.40